Takuyo — 7JWN — position and weather

sailwx.info

Track history (hours):
 
Tides and Currents Weather Stations Pressure Air Temp Water Temp Dewpoint Dewpoint Depression Visibility Wind Speed Wind Dir Waves Ship Positions

Oceanographic research ship Takuyo (Japan)

Detailed information on ship capabilities available from University of Delaware's Ocean Information Center.

Last reported at 2019-Sep-16 00:54 UTC. Time now 2019-Sep-18 11:18 UTC.
Position N 35°38' E 139°46'.

Length 96 m; draft 4.7 m.

Type: Other ship. MMSI: 431561000.

Date/timePositionNaut miles runAvg speedWind from/ knotsBaromVisibWave heightAir tempDewpointWater temp
2019-Sep-16 00:54N 35°38' E 139°46'0 0.0
2019-Sep-16 00:30N 35°38' E 139°46'1 0.9
2019-Sep-15 23:46N 35°37' E 139°46'5 9.0
2019-Sep-15 23:15N 35°34' E 139°50'2 9.4
2019-Sep-15 23:00N 35°33' E 139°53'1 1.1
2019-Sep-15 22:30N 35°34' E 139°53'2 3.3
2019-Sep-15 21:58N 35°33' E 139°55'3 5.5
2019-Sep-15 21:30N 35°31' E 139°53'611.4
2019-Sep-15 20:58N 35°26' E 139°49'511.6
2019-Sep-15 20:30N 35°22' E 139°45'5 9.5
2019-Sep-15 20:00N 35°17' E 139°45'5 9.3
2019-Sep-15 19:30N 35°12' E 139°47'5 9.2
2019-Sep-15 19:00N 35°08' E 139°46'4 8.2
2019-Sep-15 18:29N 35°04' E 139°45'6 9.2
2019-Sep-15 17:50N 34°58' E 139°42'  
Track history (hours):
 
Tides and Currents Weather Stations Pressure Air Temp Water Temp Dewpoint Dewpoint Depression Visibility Wind Speed Wind Dir Waves Ship Positions

Oceanographic research ship Takuyo (Japan)

Detailed information on ship capabilities available from University of Delaware's Ocean Information Center.

Last reported at 2019-Sep-16 00:54 UTC. Time now 2019-Sep-18 11:18 UTC.
Position N 35°38' E 139°46'.

Length 96 m; draft 4.7 m.

Type: Other ship. MMSI: 431561000.

Date/timePositionNaut miles runAvg speedWind from/ knotsBaromVisibWave heightAir tempDewpointWater temp
2019-Sep-16 00:54N 35°38' E 139°46'0 0.0
2019-Sep-16 00:30N 35°38' E 139°46'1 0.9
2019-Sep-15 23:46N 35°37' E 139°46'5 9.0
2019-Sep-15 23:15N 35°34' E 139°50'2 9.4
2019-Sep-15 23:00N 35°33' E 139°53'1 1.1
2019-Sep-15 22:30N 35°34' E 139°53'2 3.3
2019-Sep-15 21:58N 35°33' E 139°55'3 5.5
2019-Sep-15 21:30N 35°31' E 139°53'611.4
2019-Sep-15 20:58N 35°26' E 139°49'511.6
2019-Sep-15 20:30N 35°22' E 139°45'5 9.5
2019-Sep-15 20:00N 35°17' E 139°45'5 9.3
2019-Sep-15 19:30N 35°12' E 139°47'5 9.2
2019-Sep-15 19:00N 35°08' E 139°46'4 8.2
2019-Sep-15 18:29N 35°04' E 139°45'6 9.2
2019-Sep-15 17:50N 34°58' E 139°42'  

Dump ship's entire track history